Řízení letového provozu České republiky  
Aktualizace dat:  25.01.2015 20:12:34 UTC English version
   METEO Zobrazení stránky:  25.01.2015 20:13:10 UTC  
vysvětlivky
METAR EDDB 251950Z 30006KT 9999 -DZ SCT004 OVC007 01/00 Q1026 TEMPO BKN003=
METAR EDDC 251950Z 33004KT 9000 BKN014 01/M01 Q1026 R04/29//95 TEMPO BKN008=
METAR EDDE 251950Z 27009KT 9999 -SHSN SCT015 BKN048 01/01 Q1026 R88/290095 TEMPO BKN012=
METAR EDDF 251950Z 18006KT 9999 -RA SCT019 SCT038 OVC045 02/01 Q1029 NOSIG=
METAR EDDM 251950Z 26009KT 4000 -SN SCT010 SCT020 OVC045 M00/M01 Q1028 TEMPO 2000 SN BKN008=
METAR EDDN 251950Z 28006KT 9000 SCT008 BKN030 01/00 Q1027 R28/29//95 NOSIG=
METAR EDDP 251950Z 25005KT 4500 -DZRA OVC004 01/01 Q1026 R88/190195 TEMPO 5000 BKN005=
METAR EDDT 251950Z 27004KT 6000 -DZ FEW003 BKN005 BKN009 01/01 Q1026 TEMPO 4000 -DZ BKN004=
METAR COR EDQM 251950Z 25004KT 160V260 2500 -SN BKN010 M01/M02 Q1025 RESN=
METAR EPBY 252000Z 28004KT 9000 BKN042 01/M00 Q1023 =
METAR EPGD 252000Z 29002KT 5000 BR FEW004 SCT033 M01/M01 Q1022 =
METAR EPKK 252000Z 24004KT 4000 -SNBR BKN017 M02/M02 Q1022 R25/55//93 =
METAR EPKT 252000Z 28005KT 3000 -SN BR FEW003 SCT005 BKN006 M02/M02 Q1022 =
METAR EPLL 252000Z 34004KT 5000 BR OVC006 M01/M02 Q1022 R25/29//95 =
METAR EPPO 252000Z 28006KT 9999 BKN004 01/M01 Q1024 =
METAR EPRZ 252000Z 30008KT 3000 -SN BR SCT006 BKN009 OVC020 M01/M01 Q1020 =
METAR EPWA 252000Z 31009KT 5000 -SN BR BKN007 M01/M02 Q1021 R33/510295 NOSIG=
METAR EPWR 252000Z 32008KT 9999 SCT008 BKN033 01/M01 Q1025 =
METAR LHBP 252000Z 32009KT 3500 -SN BR SCT003 OVC018 01/00 Q1020 NOSIG=
METAR LHSM 251545Z 34017KT 9999 -RASN SCT010 OVC033 02/M00 Q1020=
METAR LKCV 252000Z 30007KT 9999 OVC047 02/01 Q1025 NOSIG=
METAR LKKB 252000Z VRB02KT 9999 BKN036 BKN042 01/M02 Q1025 NOSIG =
METAR LKKU NIL
METAR LKKV 252000Z 26005KT 9999 FEW003 M02/M02 Q1024 R29/////// RMK REG QNH 1021=
METAR LKLN 252000Z AUTO 27003KT 9999 -RASN FEW017 OVC024 01/M01 Q1026 RERASN=
METAR LKMT 252000Z 34006KT 310V010 9999 -SN BKN011 OVC022 M00/M02 Q1023 R04/590591 NOSIG RMK REG QNH 1021=
METAR LKNA 252000Z 32010KT 9999 FEW040 BKN200 M00/M02 Q1023 NOSIG=
METAR LKPD 252000Z 28006KT 9999 OVC042 01/M00 Q1025 NOSIG =
METAR LKPR 252000Z 27005KT 9999 BKN040 00/M02 Q1025 R24/29//95 R30/39//93 NOSIG RMK REG QNH 1021=
METAR LKTB 252000Z 36005KT 9999 BKN039 02/M03 Q1024 R28/12//95 NOSIG RMK REG QNH 1021=
METAR LKVO NIL
METAR LOWI 251950Z 12003KT 100V160 9999 FEW050 BKN070 M02/M03 Q1028 R08/29//95 NOSIG=
METAR LOWL 251950Z 28010KT 9999 FEW029 SCT050 BKN070 01/M02 Q1027 R08/1///95 NOSIG=
METAR LOWS 251950Z 21005KT 190V250 9999 -SN FEW012 BKN026 OVC040 M01/M03 Q1027 R15/29//95 TEMPO 4000 SN BKN014=
METAR LOWW 251950Z 32015KT CAVOK 02/M02 Q1024 R88/19//95 NOSIG=
METAR LZIB 252000Z 35010KT 9999 FEW018 OVC094 02/M02 Q1023 R13/690295=
METAR LZKZ 252000Z 02014KT CAVOK 00/M05 Q1019=
METAR LZPP 252000Z 35015KT 9999 SCT035 BKN080 01/M02 Q1023=
METAR LZSL 252000Z 01014KT 9999 SCT036 BKN060 01/M05 Q1019=
METAR LZTT 252000Z 26012KT 9999 -SN BKN017 M04/M06 Q1018=
METAR LZZI 252000Z 13003KT 4500 -SN BR SCT025 OVC031 M02/M03 Q1022=